createdAt,value
2017-10-03T00:00:09.587Z,99.90
2017-10-03T00:02:37.810Z,99.90
2017-10-03T00:05:05.338Z,99.90
2017-10-03T00:07:32.826Z,99.90
2017-10-03T00:10:00.349Z,99.90
2017-10-03T00:12:27.899Z,99.90
2017-10-03T00:14:56.127Z,99.90
2017-10-03T00:17:23.607Z,99.90
2017-10-03T00:19:51.177Z,99.90
2017-10-03T00:22:19.418Z,99.90
2017-10-03T00:24:46.894Z,99.90
2017-10-03T00:27:14.359Z,99.90
2017-10-03T00:29:41.853Z,99.90
2017-10-03T00:32:09.316Z,99.90
2017-10-03T00:34:36.767Z,99.90
2017-10-03T00:37:04.255Z,99.90
2017-10-03T00:39:31.727Z,99.90
2017-10-03T00:41:59.198Z,99.90
2017-10-03T00:44:26.659Z,99.90
2017-10-03T00:46:54.148Z,99.90
2017-10-03T00:49:21.612Z,99.90
2017-10-03T00:51:49.067Z,99.90
2017-10-03T00:54:16.546Z,99.90
2017-10-03T00:56:44.007Z,99.90
2017-10-03T00:59:11.487Z,99.90
2017-10-03T01:01:38.951Z,99.90
2017-10-03T01:04:06.440Z,99.90
2017-10-03T01:06:33.914Z,99.90
2017-10-03T01:09:01.374Z,99.90
2017-10-03T01:11:28.843Z,99.90
2017-10-03T01:13:56.307Z,99.90
2017-10-03T01:16:23.779Z,99.90
2017-10-03T01:18:51.241Z,99.90
2017-10-03T01:21:18.702Z,99.90
2017-10-03T01:23:46.952Z,99.90
2017-10-03T01:26:14.409Z,99.90
2017-10-03T01:28:41.890Z,99.90
2017-10-03T01:31:09.355Z,99.90
2017-10-03T01:33:37.598Z,99.90
2017-10-03T01:36:05.067Z,99.90
2017-10-03T01:38:32.534Z,99.90
2017-10-03T01:41:00.016Z,99.90
2017-10-03T01:43:28.238Z,99.90
2017-10-03T01:45:55.730Z,99.90
2017-10-03T01:48:23.971Z,99.90
2017-10-03T01:50:51.432Z,99.90
2017-10-03T01:53:18.903Z,99.90
2017-10-03T01:55:46.363Z,99.90
2017-10-03T01:58:13.842Z,99.90
2017-10-03T02:00:42.069Z,99.90
2017-10-03T02:03:09.550Z,99.90
2017-10-03T02:05:37.032Z,99.90
2017-10-03T02:08:05.255Z,99.90
2017-10-03T02:10:32.735Z,99.90
2017-10-03T02:13:00.194Z,99.90
2017-10-03T02:15:27.655Z,99.90
2017-10-03T02:17:55.130Z,99.90
2017-10-03T02:20:23.379Z,99.90
2017-10-03T02:22:50.850Z,99.90
2017-10-03T02:25:19.094Z,99.90
2017-10-03T02:27:46.552Z,99.90
2017-10-03T02:30:14.011Z,99.90
2017-10-03T02:32:41.565Z,99.90
2017-10-03T02:35:09.024Z,99.90
2017-10-03T02:37:36.547Z,99.90
2017-10-03T02:40:04.011Z,99.90
2017-10-03T02:42:31.488Z,99.90
2017-10-03T02:44:58.965Z,99.90
2017-10-03T02:47:26.421Z,99.90
2017-10-03T02:49:53.895Z,99.90
2017-10-03T02:52:22.125Z,99.90
2017-10-03T02:54:49.608Z,99.90
2017-10-03T02:57:17.064Z,99.90
2017-10-03T02:59:44.531Z,99.90
2017-10-03T03:02:12.007Z,99.90
2017-10-03T03:04:40.235Z,99.90
2017-10-03T03:07:07.698Z,99.90
2017-10-03T03:09:35.172Z,99.90
2017-10-03T03:12:03.406Z,99.90
2017-10-03T03:14:30.861Z,99.90
2017-10-03T03:16:58.322Z,99.90
2017-10-03T03:19:25.799Z,99.90
2017-10-03T03:21:53.281Z,99.90
2017-10-03T03:24:21.504Z,99.90
2017-10-03T03:26:48.976Z,99.90
2017-10-03T03:29:16.447Z,99.90
2017-10-03T03:31:43.912Z,99.90
2017-10-03T03:34:11.386Z,99.90
2017-10-03T03:36:39.635Z,99.90
2017-10-03T03:39:07.853Z,99.90
2017-10-03T03:41:35.331Z,99.90
2017-10-03T03:44:02.803Z,99.90
2017-10-03T03:46:30.261Z,99.90
2017-10-03T03:48:57.738Z,99.90
2017-10-03T03:51:25.218Z,99.90
2017-10-03T03:53:52.711Z,99.90
2017-10-03T03:56:20.170Z,99.90
2017-10-03T03:58:47.654Z,99.90
2017-10-03T04:01:15.114Z,99.90
2017-10-03T04:03:42.596Z,99.90
2017-10-03T04:06:10.846Z,99.90
2017-10-03T04:08:38.310Z,99.90
2017-10-03T04:11:05.786Z,99.90
2017-10-03T04:13:34.013Z,99.90
2017-10-03T04:16:01.486Z,99.90
2017-10-03T04:18:28.968Z,99.90
2017-10-03T04:20:57.356Z,99.90
2017-10-03T04:23:25.595Z,99.90
2017-10-03T04:25:53.058Z,99.90
2017-10-03T04:28:20.523Z,99.90
2017-10-03T04:30:47.999Z,99.90
2017-10-03T04:33:16.230Z,99.90
2017-10-03T04:35:43.706Z,99.90
2017-10-03T04:38:11.178Z,99.90
2017-10-03T04:40:39.431Z,99.90
2017-10-03T04:43:06.894Z,99.90
2017-10-03T04:45:34.355Z,99.90
2017-10-03T04:48:01.834Z,99.90
2017-10-03T04:50:30.062Z,99.90
2017-10-03T04:52:57.553Z,99.90
2017-10-03T04:55:25.009Z,99.90
2017-10-03T04:57:52.476Z,99.90
2017-10-03T05:00:20.724Z,99.90
2017-10-03T05:02:48.202Z,99.90
2017-10-03T05:05:16.462Z,99.90
2017-10-03T05:07:43.918Z,99.90
2017-10-03T05:10:11.433Z,99.90
2017-10-03T05:12:38.923Z,99.90
2017-10-03T05:15:06.411Z,99.90
2017-10-03T05:17:34.651Z,99.90
2017-10-03T05:20:02.147Z,99.90
2017-10-03T05:22:30.366Z,99.90
2017-10-03T05:24:57.854Z,99.90
2017-10-03T05:27:25.334Z,99.90
2017-10-03T05:29:53.640Z,99.90
2017-10-03T05:32:21.139Z,99.90
2017-10-03T05:34:49.681Z,99.90
2017-10-03T05:37:17.182Z,99.90
2017-10-03T05:39:44.658Z,99.90
2017-10-03T05:42:12.898Z,99.90
2017-10-03T05:44:40.370Z,99.90
2017-10-03T05:47:08.719Z,99.90
2017-10-03T05:49:36.173Z,99.90
2017-10-03T05:52:03.741Z,99.90
2017-10-03T05:54:31.430Z,99.90
2017-10-03T05:56:58.916Z,99.90
2017-10-03T05:59:26.419Z,99.90
2017-10-03T06:01:53.975Z,99.90
2017-10-03T06:04:21.560Z,99.90
2017-10-03T06:06:50.634Z,99.90
2017-10-03T06:09:18.099Z,99.90
2017-10-03T06:11:45.664Z,99.90
2017-10-03T06:14:13.143Z,99.90
2017-10-03T06:16:41.389Z,99.90
2017-10-03T06:19:08.859Z,99.90
2017-10-03T06:21:36.386Z,99.90
2017-10-03T06:24:03.905Z,99.90
2017-10-03T06:26:31.491Z,99.90
2017-10-03T06:28:59.493Z,99.90
2017-10-03T06:31:26.990Z,99.90
2017-10-03T06:33:54.815Z,99.90
2017-10-03T06:36:22.971Z,99.90
2017-10-03T06:38:50.523Z,99.90
2017-10-03T06:41:18.204Z,99.90
2017-10-03T06:43:45.741Z,99.90
2017-10-03T06:46:13.417Z,99.90
2017-10-03T06:48:41.007Z,99.90
2017-10-03T06:51:08.631Z,99.90
2017-10-03T06:53:36.196Z,99.90
2017-10-03T06:56:03.862Z,99.90
2017-10-03T06:58:31.689Z,99.90
2017-10-03T07:00:59.259Z,99.90
2017-10-03T07:03:26.831Z,99.90
2017-10-03T07:05:54.426Z,99.90
2017-10-03T07:08:23.420Z,99.90
2017-10-03T07:10:50.946Z,99.90
2017-10-03T07:13:18.465Z,99.90
2017-10-03T07:15:45.960Z,99.90
2017-10-03T07:18:14.411Z,99.90
2017-10-03T07:20:41.976Z,99.90
2017-10-03T07:23:09.444Z,99.90
2017-10-03T07:25:36.919Z,99.90
2017-10-03T07:28:04.395Z,99.90
2017-10-03T07:30:31.875Z,99.90
2017-10-03T07:32:59.334Z,99.90
2017-10-03T07:35:26.819Z,99.90
2017-10-03T07:37:54.635Z,99.90
2017-10-03T07:40:22.954Z,99.90
2017-10-03T07:42:50.508Z,99.90
2017-10-03T07:45:18.117Z,99.90
2017-10-03T07:47:45.743Z,99.90
2017-10-03T07:50:13.341Z,99.90
2017-10-03T07:52:40.807Z,99.90
2017-10-03T07:55:09.127Z,99.90
2017-10-03T07:57:36.694Z,99.90
2017-10-03T08:00:04.163Z,99.90
2017-10-03T08:02:31.627Z,99.90
2017-10-03T08:04:59.111Z,99.90
2017-10-03T08:07:28.078Z,99.90
2017-10-03T08:09:55.669Z,99.90
2017-10-03T08:12:23.133Z,99.90
2017-10-03T08:14:50.607Z,99.90
2017-10-03T08:17:18.091Z,99.90
2017-10-03T08:19:45.571Z,99.90
2017-10-03T08:22:13.057Z,99.90
2017-10-03T08:24:41.298Z,99.90
2017-10-03T08:27:08.755Z,99.90
2017-10-03T08:29:36.969Z,99.90
2017-10-03T08:32:05.215Z,99.90
2017-10-03T08:34:32.681Z,99.90
2017-10-03T08:37:00.930Z,99.90
2017-10-03T08:39:29.178Z,99.90
2017-10-03T08:41:56.671Z,99.90
2017-10-03T08:44:24.203Z,99.90
2017-10-03T08:46:51.650Z,99.90
2017-10-03T08:49:19.119Z,99.90
2017-10-03T08:51:46.600Z,99.90
2017-10-03T08:54:14.058Z,99.90
2017-10-03T08:56:41.541Z,99.90
2017-10-03T08:59:09.776Z,99.90
2017-10-03T09:01:37.297Z,99.90
2017-10-03T09:04:04.783Z,99.90
2017-10-03T09:06:32.259Z,99.90
2017-10-03T09:08:59.723Z,99.90
2017-10-03T09:11:27.195Z,99.90
2017-10-03T09:13:55.426Z,99.90
2017-10-03T09:16:22.918Z,99.90
2017-10-03T09:18:50.374Z,99.90
2017-10-03T09:21:18.598Z,99.90
2017-10-03T09:23:46.088Z,99.90
2017-10-03T09:26:13.546Z,99.90
2017-10-03T09:28:41.036Z,99.90
2017-10-03T09:31:09.254Z,99.90
2017-10-03T09:33:36.746Z,99.90
2017-10-03T09:36:04.208Z,99.90
2017-10-03T09:38:31.660Z,99.90
2017-10-03T09:40:59.907Z,99.90
2017-10-03T09:43:27.367Z,99.90
2017-10-03T09:45:54.843Z,99.90
2017-10-03T09:48:22.319Z,99.90
2017-10-03T09:50:50.583Z,99.90
2017-10-03T09:53:18.827Z,99.90
2017-10-03T09:55:46.304Z,99.90
2017-10-03T09:58:13.782Z,99.90
2017-10-03T10:00:42.019Z,99.90
2017-10-03T10:03:09.491Z,99.90
2017-10-03T10:05:36.998Z,99.90
2017-10-03T10:08:04.469Z,99.90
2017-10-03T10:10:31.953Z,99.90
2017-10-03T10:12:59.434Z,99.90
2017-10-03T10:15:27.682Z,99.90
2017-10-03T10:17:55.158Z,99.90
2017-10-03T10:20:23.407Z,99.90
2017-10-03T10:22:50.888Z,99.90
2017-10-03T10:25:19.119Z,99.90
2017-10-03T10:27:46.579Z,99.90
2017-10-03T10:30:14.059Z,99.90
2017-10-03T10:32:41.540Z,99.90
2017-10-03T10:35:09.825Z,99.90
2017-10-03T10:37:38.059Z,99.90
2017-10-03T10:40:05.570Z,99.90
2017-10-03T10:42:33.019Z,99.90
2017-10-03T10:45:00.513Z,99.90
2017-10-03T10:47:27.999Z,99.90
2017-10-03T10:49:56.230Z,99.90
2017-10-03T10:52:23.720Z,99.90
2017-10-03T10:54:51.220Z,99.90
2017-10-03T10:57:19.453Z,99.90
2017-10-03T10:59:46.919Z,99.90
2017-10-03T11:02:14.398Z,99.90
2017-10-03T11:04:42.637Z,99.20
2017-10-03T11:07:10.097Z,99.20
2017-10-03T11:09:37.567Z,97.40
2017-10-03T11:12:05.828Z,93.50
2017-10-03T11:14:33.279Z,93.20
2017-10-03T11:17:00.745Z,96.60
2017-10-03T11:19:28.219Z,93.50
2017-10-03T11:21:56.456Z,88.30
2017-10-03T11:24:50.709Z,88.20
2017-10-03T11:27:18.175Z,87.20
2017-10-03T11:29:45.631Z,92.70
2017-10-03T11:32:13.126Z,97.00
2017-10-03T11:34:40.591Z,91.90
2017-10-03T11:37:08.101Z,90.70
2017-10-03T11:39:35.585Z,88.10
2017-10-03T11:42:03.055Z,91.50
2017-10-03T11:44:30.519Z,92.40
2017-10-03T11:46:57.977Z,93.80
2017-10-03T11:49:25.472Z,92.30
2017-10-03T11:51:52.946Z,94.10
2017-10-03T11:54:20.472Z,95.20
2017-10-03T11:56:48.679Z,99.90
2017-10-03T11:59:16.186Z,99.90
2017-10-03T12:01:43.680Z,99.90
2017-10-03T12:04:11.155Z,99.90
2017-10-03T12:06:38.635Z,99.90
2017-10-03T12:09:06.091Z,99.90
2017-10-03T12:11:33.563Z,99.90
2017-10-03T12:14:01.374Z,99.90
2017-10-03T12:16:28.947Z,99.90
2017-10-03T12:18:56.910Z,99.90
2017-10-03T12:21:24.367Z,99.90
2017-10-03T12:23:52.004Z,99.90
2017-10-03T12:26:19.487Z,99.90
2017-10-03T12:28:46.980Z,98.40
2017-10-03T12:31:14.454Z,98.70
2017-10-03T12:33:42.840Z,99.90
2017-10-03T12:36:10.927Z,99.90
2017-10-03T12:38:38.523Z,99.90
2017-10-03T12:41:06.016Z,99.90
2017-10-03T12:43:33.503Z,99.90
2017-10-03T12:46:00.980Z,99.90
2017-10-03T12:48:28.462Z,99.90
2017-10-03T12:50:55.924Z,99.90
2017-10-03T12:53:23.410Z,99.90
2017-10-03T12:55:51.659Z,99.90
2017-10-03T12:58:19.134Z,99.90
2017-10-03T13:00:46.628Z,99.90
2017-10-03T13:03:14.091Z,99.90
2017-10-03T13:05:41.556Z,99.90
2017-10-03T13:08:09.015Z,99.90
2017-10-03T13:10:36.486Z,99.90
2017-10-03T13:13:03.965Z,99.90
2017-10-03T13:15:32.211Z,99.90
2017-10-03T13:18:00.171Z,99.90
2017-10-03T13:20:28.056Z,99.90
2017-10-03T13:22:55.519Z,99.90
2017-10-03T13:25:23.327Z,99.90
2017-10-03T13:27:51.691Z,99.90
2017-10-03T13:30:19.912Z,99.90
2017-10-03T13:32:47.389Z,99.90
2017-10-03T13:35:14.932Z,99.90
2017-10-03T13:37:42.402Z,99.90
2017-10-03T13:40:10.644Z,99.90
2017-10-03T13:42:38.123Z,99.90
2017-10-03T13:45:05.575Z,99.90
2017-10-03T13:47:33.067Z,99.90
2017-10-03T13:50:01.327Z,99.90
2017-10-03T13:52:28.787Z,99.90
2017-10-03T13:54:56.276Z,99.90
2017-10-03T13:57:23.735Z,99.90
2017-10-03T13:59:51.204Z,99.90
2017-10-03T14:02:18.696Z,99.90
2017-10-03T14:04:46.173Z,99.90
2017-10-03T14:07:15.147Z,99.90
2017-10-03T14:09:42.629Z,99.90
2017-10-03T14:12:10.099Z,99.90
2017-10-03T14:14:38.334Z,99.90
2017-10-03T14:17:05.805Z,99.90
2017-10-03T14:19:33.261Z,99.90
2017-10-03T14:22:00.756Z,99.90
2017-10-03T14:24:28.214Z,99.90
2017-10-03T14:26:55.703Z,99.90
2017-10-03T14:29:23.182Z,99.90
2017-10-03T14:31:50.670Z,99.90
2017-10-03T14:34:18.975Z,99.90
2017-10-03T14:36:46.435Z,99.90
2017-10-03T14:39:13.923Z,99.90
2017-10-03T14:41:41.375Z,99.90
2017-10-03T14:44:08.857Z,99.90
2017-10-03T14:46:36.326Z,99.90
2017-10-03T14:49:04.568Z,99.90
2017-10-03T14:51:32.039Z,99.90
2017-10-03T14:54:00.271Z,99.90
2017-10-03T14:56:27.754Z,99.90
2017-10-03T14:58:55.210Z,99.90
2017-10-03T15:01:22.715Z,99.90
2017-10-03T15:03:50.935Z,99.90
2017-10-03T15:06:18.389Z,99.90
2017-10-03T15:08:46.024Z,99.90
2017-10-03T15:11:13.509Z,99.90
2017-10-03T15:13:40.963Z,99.90
2017-10-03T15:16:08.446Z,99.90
2017-10-03T15:18:35.939Z,99.90
2017-10-03T15:21:03.411Z,99.90
2017-10-03T15:23:30.870Z,99.90
2017-10-03T15:25:58.346Z,99.90
2017-10-03T15:28:25.810Z,99.90
2017-10-03T15:30:53.264Z,99.90
2017-10-03T15:33:20.830Z,99.90
2017-10-03T15:35:49.071Z,99.90
2017-10-03T15:38:16.523Z,99.90
2017-10-03T15:40:44.003Z,99.90
2017-10-03T15:43:11.512Z,99.90
2017-10-03T15:45:39.774Z,99.90
2017-10-03T15:48:07.264Z,99.90
2017-10-03T15:50:34.829Z,99.90
2017-10-03T15:53:02.391Z,99.90
2017-10-03T15:55:30.004Z,99.90
2017-10-03T15:57:57.487Z,99.90
2017-10-03T16:00:24.997Z,99.90
2017-10-03T16:02:52.479Z,99.90
2017-10-03T16:05:20.882Z,99.90
2017-10-03T16:07:48.363Z,99.90
2017-10-03T16:10:15.834Z,99.90
2017-10-03T16:12:43.330Z,99.90
2017-10-03T16:15:11.698Z,99.90
2017-10-03T16:17:39.172Z,99.90
2017-10-03T16:20:07.410Z,99.90
2017-10-03T16:22:34.886Z,99.90
2017-10-03T16:25:02.357Z,99.90
2017-10-03T16:27:30.592Z,99.90
2017-10-03T16:29:58.075Z,99.90
2017-10-03T16:32:25.595Z,99.90
2017-10-03T16:34:53.691Z,99.90
2017-10-03T16:37:21.290Z,99.90
2017-10-03T16:39:48.869Z,99.90
2017-10-03T16:42:16.489Z,99.90
2017-10-03T16:44:44.097Z,99.90
2017-10-03T16:47:11.666Z,99.90
2017-10-03T16:49:39.163Z,99.90
2017-10-03T16:52:08.212Z,99.90
2017-10-03T16:54:35.680Z,99.90
2017-10-03T16:57:03.147Z,99.90
2017-10-03T16:59:30.624Z,99.90
2017-10-03T17:01:58.091Z,99.90
2017-10-03T17:04:26.414Z,99.90
2017-10-03T17:06:54.090Z,99.90
2017-10-03T17:09:21.992Z,99.90
2017-10-03T17:11:49.788Z,99.90
2017-10-03T17:14:17.691Z,99.90
2017-10-03T17:16:45.326Z,99.90
2017-10-03T17:19:12.863Z,99.90
2017-10-03T17:21:40.352Z,99.90
2017-10-03T17:24:08.575Z,99.90
2017-10-03T17:26:36.988Z,99.90
2017-10-03T17:29:04.491Z,99.90
2017-10-03T17:31:32.306Z,99.90
2017-10-03T17:33:59.780Z,99.90
2017-10-03T17:36:27.232Z,99.90
2017-10-03T17:38:54.718Z,99.90
2017-10-03T17:41:22.187Z,99.90
2017-10-03T17:43:49.660Z,99.90
2017-10-03T17:46:17.906Z,99.90
2017-10-03T17:48:46.131Z,99.90
2017-10-03T17:51:13.594Z,99.90
2017-10-03T17:53:41.076Z,99.90
2017-10-03T17:56:08.571Z,99.90
2017-10-03T17:58:36.031Z,99.90
2017-10-03T18:01:04.279Z,99.90
2017-10-03T18:03:31.758Z,99.90
2017-10-03T18:05:59.301Z,99.90
2017-10-03T18:08:26.769Z,99.90
2017-10-03T18:10:55.097Z,99.90
2017-10-03T18:13:22.634Z,99.90
2017-10-03T18:15:50.419Z,99.90
2017-10-03T18:18:18.249Z,99.90
2017-10-03T18:20:46.693Z,99.90
2017-10-03T18:23:14.518Z,99.90
2017-10-03T18:25:42.027Z,99.90
2017-10-03T18:28:09.950Z,99.90
2017-10-03T18:30:37.569Z,99.90
2017-10-03T18:33:05.572Z,99.90
2017-10-03T18:35:34.973Z,99.90
2017-10-03T18:38:02.507Z,99.90
2017-10-03T18:40:30.795Z,99.90
2017-10-03T18:42:58.295Z,99.90
2017-10-03T18:45:26.449Z,99.90
2017-10-03T18:47:54.188Z,99.90
2017-10-03T18:50:21.737Z,99.90
2017-10-03T18:52:50.444Z,99.90
2017-10-03T18:55:18.070Z,99.90
2017-10-03T18:57:45.971Z,99.90
2017-10-03T19:00:13.836Z,99.90
2017-10-03T19:02:41.703Z,99.90
2017-10-03T19:05:09.679Z,99.90
2017-10-03T19:07:37.537Z,99.90
2017-10-03T19:10:06.229Z,99.90
2017-10-03T19:12:34.088Z,99.90
2017-10-03T19:15:01.955Z,99.90
2017-10-03T19:17:30.787Z,99.90
2017-10-03T19:19:59.425Z,99.90
2017-10-03T19:22:27.292Z,99.90
2017-10-03T19:24:55.728Z,99.90
2017-10-03T19:27:23.638Z,99.90
2017-10-03T19:29:52.937Z,99.90
2017-10-03T19:32:20.911Z,99.90
2017-10-03T19:34:48.775Z,99.90
2017-10-03T19:37:16.638Z,99.90
2017-10-03T19:39:44.504Z,99.90
2017-10-03T19:42:12.471Z,99.90
2017-10-03T19:44:41.264Z,99.90
2017-10-03T19:47:09.928Z,99.90
2017-10-03T19:49:37.808Z,99.90
2017-10-03T19:52:05.371Z,99.90
2017-10-03T19:54:33.439Z,99.90
2017-10-03T19:57:01.840Z,99.90
2017-10-03T19:59:29.682Z,99.90
2017-10-03T20:01:57.550Z,99.90
2017-10-03T20:04:25.415Z,99.90
2017-10-03T20:06:53.073Z,99.90
2017-10-03T20:09:20.554Z,99.90
2017-10-03T20:11:48.050Z,99.90
2017-10-03T20:14:16.310Z,99.90
2017-10-03T20:16:45.294Z,99.90
2017-10-03T20:19:12.800Z,99.90
2017-10-03T20:21:40.318Z,99.90
2017-10-03T20:24:08.615Z,99.90
2017-10-03T20:26:36.952Z,99.90
2017-10-03T20:29:04.528Z,99.90
2017-10-03T20:31:32.811Z,99.90
2017-10-03T20:34:00.272Z,99.90
2017-10-03T20:36:27.848Z,99.90
2017-10-03T20:38:56.155Z,99.90
2017-10-03T20:41:23.748Z,99.90
2017-10-03T20:43:51.224Z,99.90
2017-10-03T20:46:19.567Z,99.90
2017-10-03T20:48:47.637Z,99.90
2017-10-03T20:51:15.129Z,99.90
2017-10-03T20:53:43.373Z,99.90
2017-10-03T20:56:10.872Z,99.90
2017-10-03T20:58:39.094Z,99.90
2017-10-03T21:01:06.554Z,99.90
2017-10-03T21:03:34.045Z,99.90
2017-10-03T21:06:01.517Z,99.90
2017-10-03T21:08:29.741Z,99.90
2017-10-03T21:10:57.224Z,99.90
2017-10-03T21:13:24.681Z,99.90
2017-10-03T21:15:52.154Z,99.90
2017-10-03T21:18:20.399Z,99.90
2017-10-03T21:20:47.883Z,99.90
2017-10-03T21:23:15.348Z,99.90
2017-10-03T21:25:43.592Z,99.90
2017-10-03T21:28:11.051Z,99.90
2017-10-03T21:30:38.531Z,99.90
2017-10-03T21:33:06.755Z,99.90
2017-10-03T21:35:34.240Z,99.90
2017-10-03T21:38:01.686Z,99.90
2017-10-03T21:40:29.174Z,99.90
2017-10-03T21:43:11.083Z,99.90
2017-10-03T21:45:39.304Z,99.90
2017-10-03T21:48:06.779Z,99.90
2017-10-03T21:50:34.258Z,99.90
2017-10-03T21:53:02.495Z,99.90
2017-10-03T21:55:29.955Z,99.90
2017-10-03T21:57:57.446Z,99.90
2017-10-03T22:00:25.679Z,99.90
2017-10-03T22:02:53.154Z,99.90
2017-10-03T22:05:21.407Z,99.90
2017-10-03T22:07:48.862Z,99.90
2017-10-03T22:10:16.316Z,99.90
2017-10-03T22:12:43.797Z,99.90
2017-10-03T22:15:11.274Z,99.90
2017-10-03T22:17:39.491Z,99.90
2017-10-03T22:20:06.971Z,99.90
2017-10-03T22:22:34.448Z,99.90
2017-10-03T22:25:02.684Z,99.90
2017-10-03T22:27:30.163Z,99.90
2017-10-03T22:29:57.623Z,99.90
2017-10-03T22:32:25.098Z,99.90
2017-10-03T22:34:52.582Z,99.90
2017-10-03T22:37:20.044Z,99.90
2017-10-03T22:39:47.519Z,99.90
2017-10-03T22:42:14.986Z,99.90
2017-10-03T22:44:42.447Z,99.90
2017-10-03T22:47:09.923Z,99.90
2017-10-03T22:49:37.378Z,99.90
2017-10-03T22:52:10.668Z,99.90
2017-10-03T22:54:38.123Z,99.90
2017-10-03T22:57:05.587Z,99.90
2017-10-03T22:59:34.575Z,99.90
2017-10-03T23:02:02.034Z,99.90
2017-10-03T23:04:29.507Z,99.90
2017-10-03T23:06:56.959Z,99.90
2017-10-03T23:09:24.416Z,99.90
2017-10-03T23:11:52.659Z,99.90
2017-10-03T23:14:20.119Z,99.90
2017-10-03T23:16:47.598Z,99.90
2017-10-03T23:19:15.058Z,99.90
2017-10-03T23:21:42.538Z,99.90
2017-10-03T23:24:10.009Z,99.90
2017-10-03T23:26:37.486Z,99.90
2017-10-03T23:29:04.954Z,99.90
2017-10-03T23:31:32.414Z,99.90
2017-10-03T23:33:59.894Z,99.90
2017-10-03T23:36:27.363Z,99.90
2017-10-03T23:38:55.609Z,99.90
2017-10-03T23:41:23.063Z,99.90
2017-10-03T23:43:50.545Z,99.90
2017-10-03T23:46:19.522Z,99.90
2017-10-03T23:48:48.494Z,99.90
2017-10-03T23:51:15.970Z,99.90
2017-10-03T23:53:43.425Z,99.90
2017-10-03T23:56:10.927Z,99.90
2017-10-03T23:58:39.139Z,99.90
